Umatilla — WDG2202 — position and weather

sailwx.info

Track history (hours):
 
Tides and Currents Weather Stations Pressure Air Temp Water Temp Dewpoint Dewpoint Depression Visibility Wind Speed Wind Dir Waves Ship Positions

Umatilla

Owner: Shaver TRansportation Company, Portland, OR. More information available from US FCC via Universal Licensing System and Coast Guard Vessel Documentation Center.

Last reported at 2017-Dec-18 04:50 UTC. Time now 2017-Dec-18 05:22 UTC.
Position N 45°34' W 122°44'.

Length 20 m; draft 2.9 m.

Type: Tug. MMSI: 367513210.

Date/timePositionNaut miles runAvg speedWind from/ knotsBaromVisibWave heightAir tempDewpointWater temp
2017-Dec-18 04:50N 45°34' W 122°44'2 7.5
2017-Dec-18 04:31N 45°32' W 122°41'0 0.1
2017-Dec-18 03:58N 45°32' W 122°41'0 0.1
2017-Dec-18 03:25N 45°32' W 122°41'1 2.0
2017-Dec-18 03:00N 45°33' W 122°42'1 1.1
2017-Dec-18 02:30N 45°33' W 122°42'2 2.7
2017-Dec-18 01:56N 45°32' W 122°41'0 0.0
2017-Dec-18 01:27N 45°32' W 122°41'3 3.0
2017-Dec-18 00:33N 45°34' W 122°44'0 0.0
2017-Dec-18 00:27N 45°34' W 122°44'0 0.0
2017-Dec-18 00:00N 45°34' W 122°44'0 0.0
2017-Dec-17 23:27N 45°34' W 122°44'0 0.0
2017-Dec-17 23:00N 45°34' W 122°44'2 3.3
2017-Dec-17 22:30N 45°35' W 122°45'2 2.5
2017-Dec-17 21:54N 45°36' W 122°47'1 2.4
2017-Dec-17 21:29N 45°35' W 122°46'2 4.5
2017-Dec-17 21:00N 45°34' W 122°44'0 0.0
2017-Dec-17 20:30N 45°34' W 122°44'0 0.0
2017-Dec-17 20:00N 45°34' W 122°44'0 0.0
2017-Dec-17 19:30N 45°34' W 122°44'0 0.0
2017-Dec-17 19:00N 45°34' W 122°44'0 0.0
2017-Dec-17 18:30N 45°34' W 122°44'0 0.0
2017-Dec-17 18:00N 45°34' W 122°44'0 0.0
2017-Dec-17 17:24N 45°34' W 122°44'0 0.0
2017-Dec-17 17:00N 45°34' W 122°44'0 0.0
2017-Dec-17 16:30N 45°34' W 122°44'0 0.0
2017-Dec-17 16:00N 45°34' W 122°44'0 0.0
2017-Dec-17 15:30N 45°34' W 122°44'0 0.0
2017-Dec-17 15:00N 45°34' W 122°44'1 1.8
2017-Dec-17 14:30N 45°34' W 122°44'4 7.8
2017-Dec-17 14:00N 45°38' W 122°47'2 3.7
2017-Dec-17 13:30N 45°39' W 122°45'0 0.1
2017-Dec-17 13:00N 45°39' W 122°45'0 0.0
2017-Dec-17 12:24N 45°39' W 122°45'0 0.0
2017-Dec-17 12:00N 45°39' W 122°45'0 0.0
2017-Dec-17 11:30N 45°39' W 122°45'0 0.0
2017-Dec-17 10:54N 45°39' W 122°45'0 0.0
2017-Dec-17 10:30N 45°39' W 122°45'0 0.0
2017-Dec-17 09:57N 45°39' W 122°45'0 0.0
2017-Dec-17 09:30N 45°39' W 122°45'0 0.0
2017-Dec-17 09:00N 45°39' W 122°45'0 0.0
2017-Dec-17 08:27N 45°39' W 122°45'0 0.0
2017-Dec-17 08:00N 45°39' W 122°45'0 0.0
2017-Dec-17 07:30N 45°39' W 122°45'0 0.0
2017-Dec-17 07:00N 45°39' W 122°45'0 0.0
2017-Dec-17 06:27N 45°39' W 122°45'0 0.0
2017-Dec-17 06:00N 45°39' W 122°45'0 0.0
2017-Dec-17 05:27N 45°39' W 122°45'0 0.0
2017-Dec-17 05:00N 45°39' W 122°45'0 0.0
2017-Dec-17 04:30N 45°39' W 122°45'0 0.0
2017-Dec-17 03:51N 45°39' W 122°45'0 0.0
2017-Dec-17 03:30N 45°39' W 122°45'0 0.0
2017-Dec-17 03:00N 45°39' W 122°45'0 0.0
2017-Dec-17 02:27N 45°39' W 122°45'0 0.0
2017-Dec-17 02:00N 45°39' W 122°45'0 0.0
2017-Dec-17 01:12N 45°39' W 122°45'0 0.0
2017-Dec-17 00:57N 45°39' W 122°45'0 0.0
2017-Dec-17 00:24N 45°39' W 122°45'0 0.0
2017-Dec-17 00:00N 45°39' W 122°45'0 0.0
2017-Dec-16 23:27N 45°39' W 122°45'0 0.0
2017-Dec-16 22:57N 45°39' W 122°45'0 0.0
2017-Dec-16 22:27N 45°39' W 122°45'0 0.0
2017-Dec-16 21:57N 45°39' W 122°45'0 0.0
2017-Dec-16 21:30N 45°39' W 122°45'0 0.0
2017-Dec-16 21:00N 45°39' W 122°45'0 0.0
2017-Dec-16 20:30N 45°39' W 122°45'0 0.0
2017-Dec-16 19:57N 45°39' W 122°45'0 0.0
2017-Dec-16 19:30N 45°39' W 122°45'0 0.0
2017-Dec-16 18:57N 45°39' W 122°45'0 0.0
2017-Dec-16 18:27N 45°39' W 122°45'0 0.0
2017-Dec-16 17:54N 45°39' W 122°45'0 0.0
2017-Dec-16 17:24N 45°39' W 122°45'0 0.0
2017-Dec-16 17:00N 45°39' W 122°45'0 0.0
2017-Dec-16 16:24N 45°39' W 122°45'0 0.0
2017-Dec-16 16:00N 45°39' W 122°45'0 0.0
2017-Dec-16 15:30N 45°39' W 122°45'0 0.0
2017-Dec-16 15:00N 45°39' W 122°45'0 0.0
2017-Dec-16 14:30N 45°39' W 122°45'0 0.0
2017-Dec-16 14:00N 45°39' W 122°45'0 0.0
2017-Dec-16 13:30N 45°39' W 122°45'0 0.0
2017-Dec-16 12:57N 45°39' W 122°45'0 0.0
2017-Dec-16 12:30N 45°39' W 122°45'0 0.0
2017-Dec-16 11:57N 45°39' W 122°45'0 0.0
2017-Dec-16 11:27N 45°39' W 122°45'0 0.0
2017-Dec-16 10:57N 45°39' W 122°45'0 0.0
2017-Dec-16 10:30N 45°39' W 122°45'0 0.0
2017-Dec-16 10:00N 45°39' W 122°45'0 0.0
2017-Dec-16 09:21N 45°39' W 122°45'0 0.0
2017-Dec-16 08:57N 45°39' W 122°45'0 0.0
2017-Dec-16 08:27N 45°39' W 122°45'0 0.0
2017-Dec-16 08:00N 45°39' W 122°45'0 0.0
2017-Dec-16 07:27N 45°39' W 122°45'0 0.0
2017-Dec-16 07:00N 45°39' W 122°45'0 0.0
2017-Dec-16 06:30N 45°39' W 122°45'0 0.0
2017-Dec-16 05:54N 45°39' W 122°45'0 0.0
2017-Dec-16 05:24N 45°39' W 122°45'0 0.0
2017-Dec-16 04:54N 45°39' W 122°45'0 0.0
2017-Dec-16 04:30N 45°39' W 122°45'0 0.0
2017-Dec-16 03:57N 45°39' W 122°45'0 0.0
2017-Dec-16 03:30N 45°39' W 122°45'1 1.3
2017-Dec-16 03:00N 45°39' W 122°44'2 4.2
2017-Dec-16 02:31N 45°38' W 122°42'1 1.0
2017-Dec-16 02:00N 45°38' W 122°42'2 3.9
2017-Dec-16 01:30N 45°39' W 122°45'1 1.9
2017-Dec-16 01:00N 45°38' W 122°44'2 3.1
2017-Dec-16 00:31N 45°38' W 122°42'2 3.2
2017-Dec-16 00:00N 45°38' W 122°44'0 0.0
2017-Dec-15 23:31N 45°38' W 122°44'0 0.0
2017-Dec-15 22:57N 45°38' W 122°44'1 0.7
2017-Dec-15 21:20N 45°39' W 122°45'0 0.0
2017-Dec-15 21:00N 45°39' W 122°45'0 0.0
2017-Dec-15 20:16N 45°39' W 122°45'0 0.0
2017-Dec-15 20:00N 45°39' W 122°45'0 0.0
2017-Dec-15 19:21N 45°39' W 122°45'0 0.0
2017-Dec-15 19:00N 45°39' W 122°45'0 0.0
2017-Dec-15 18:31N 45°39' W 122°45'0 0.0
2017-Dec-15 18:01N 45°39' W 122°45'0 0.0
2017-Dec-15 17:30N 45°39' W 122°45'0 0.0
2017-Dec-15 17:01N 45°39' W 122°45'0 0.0
2017-Dec-15 16:30N 45°39' W 122°45'0 0.0
2017-Dec-15 16:00N 45°39' W 122°45'0 0.0
2017-Dec-15 15:30N 45°39' W 122°45'0 0.0
2017-Dec-15 15:00N 45°39' W 122°45'0 0.0
2017-Dec-15 14:30N 45°39' W 122°45'0 0.0
2017-Dec-15 13:54N 45°39' W 122°45'0 0.0
2017-Dec-15 13:30N 45°39' W 122°45'0 0.0
2017-Dec-15 12:23N 45°39' W 122°45'0 0.0
2017-Dec-15 12:00N 45°39' W 122°45'0 0.0
2017-Dec-15 11:31N 45°39' W 122°45'0 0.0
2017-Dec-15 11:00N 45°39' W 122°45'0 0.0
2017-Dec-15 10:30N 45°39' W 122°45'0 0.0
2017-Dec-15 09:52N 45°39' W 122°45'0 0.0
2017-Dec-15 09:20N 45°39' W 122°45'0 0.0
2017-Dec-15 09:00N 45°39' W 122°45'0 0.0
2017-Dec-15 08:30N 45°39' W 122°45'0 0.0
2017-Dec-15 08:00N 45°39' W 122°45'0 0.0
2017-Dec-15 07:30N 45°39' W 122°45'0 0.0
2017-Dec-15 07:01N 45°39' W 122°45'0 0.0
2017-Dec-15 06:28N 45°39' W 122°45'0 0.0
2017-Dec-15 06:00N 45°39' W 122°45'0 0.0
2017-Dec-15 05:08N 45°39' W 122°45'0 0.0
2017-Dec-15 05:01N 45°39' W 122°45'0 0.0
2017-Dec-15 04:30N 45°39' W 122°45'0 0.0
2017-Dec-15 04:00N 45°39' W 122°45'0 0.0
2017-Dec-15 02:31N 45°39' W 122°45'0 0.0
2017-Dec-15 01:01N 45°39' W 122°45'1 1.5
2017-Dec-15 00:30N 45°38' W 122°44'1 0.1
2017-Dec-14 18:28N 45°39' W 122°45'0 0.0
2017-Dec-14 17:58N 45°39' W 122°45'0 0.0
2017-Dec-14 17:28N 45°39' W 122°45'0 0.0
2017-Dec-14 16:58N 45°39' W 122°45'0 0.0
2017-Dec-14 16:28N 45°39' W 122°45'0 0.0
2017-Dec-14 15:58N 45°39' W 122°45'0 0.0
2017-Dec-14 14:58N 45°39' W 122°45'0 0.0
2017-Dec-14 14:16N 45°39' W 122°45'0 0.0
2017-Dec-14 13:55N 45°39' W 122°45'0 0.0
2017-Dec-14 13:22N 45°39' W 122°45'0 0.0
2017-Dec-14 12:58N 45°39' W 122°45'0 0.0
2017-Dec-14 12:19N 45°39' W 122°45'0 0.0
2017-Dec-14 11:34N 45°39' W 122°45'0 0.1
2017-Dec-14 11:28N 45°39' W 122°45'0 0.0
2017-Dec-14 10:58N 45°39' W 122°45'0 0.0
2017-Dec-14 10:22N 45°39' W 122°45'0 0.0
2017-Dec-14 09:58N 45°39' W 122°45'0 0.0
2017-Dec-14 09:22N 45°39' W 122°45'0 0.0
2017-Dec-14 08:55N 45°39' W 122°45'0 0.0
2017-Dec-14 08:28N 45°39' W 122°45'0 0.0
2017-Dec-14 07:58N 45°39' W 122°45'0 0.0
2017-Dec-14 07:28N 45°39' W 122°45'0 0.0
2017-Dec-14 06:58N 45°39' W 122°45'0 0.0
2017-Dec-14 06:16N 45°39' W 122°45'0 0.0
2017-Dec-14 05:58N 45°39' W 122°45'1 3.1
2017-Dec-14 05:30N 45°38' W 122°43'0 0.2
2017-Dec-14 05:00N 45°38' W 122°43'0 0.1
2017-Dec-14 04:31N 45°38' W 122°43'0 0.1
2017-Dec-14 04:00N 45°38' W 122°43'0 0.0
2017-Dec-14 03:30N 45°38' W 122°43'2 3.1
2017-Dec-14 03:00N 45°39' W 122°45'0 0.0
2017-Dec-14 02:30N 45°39' W 122°45'0 0.0
2017-Dec-14 01:51N 45°39' W 122°45'0 0.0
2017-Dec-14 01:27N 45°39' W 122°45'0 0.0
2017-Dec-14 00:58N 45°39' W 122°45'2 4.8
2017-Dec-14 00:30N 45°37' W 122°47'1 2.4
2017-Dec-14 00:00N 45°36' W 122°46'2 3.6
2017-Dec-13 23:30N 45°38' W 122°47'3 6.4
2017-Dec-13 23:01N 45°38' W 122°43'1 2.0
2017-Dec-13 22:30N 45°39' W 122°44'1 0.9
2017-Dec-13 21:58N 45°39' W 122°45'0 0.0
2017-Dec-13 20:37N 45°39' W 122°45'0 0.0
2017-Dec-13 20:28N 45°39' W 122°45'0 0.0
2017-Dec-13 19:55N 45°39' W 122°45'0 0.0
2017-Dec-13 19:22N 45°39' W 122°45'0 0.0
2017-Dec-13 18:58N 45°39' W 122°45'0 0.0
2017-Dec-13 18:25N 45°39' W 122°45'0 0.0
2017-Dec-13 17:58N 45°39' W 122°45'0 0.0
2017-Dec-13 17:28N 45°39' W 122°45'0 0.0
2017-Dec-13 16:56N 45°39' W 122°45'0 0.0
2017-Dec-13 16:25N 45°39' W 122°45'0 0.0
2017-Dec-13 15:58N 45°39' W 122°45'0 0.0
2017-Dec-13 15:28N 45°39' W 122°45'0 0.0
2017-Dec-13 14:58N 45°39' W 122°45'0 0.0
2017-Dec-13 14:28N 45°39' W 122°45'0 0.0
2017-Dec-13 13:55N 45°39' W 122°45'0 0.0
2017-Dec-13 13:28N 45°39' W 122°45'0 0.0
2017-Dec-13 12:58N 45°39' W 122°45'0 0.0
2017-Dec-13 12:25N 45°39' W 122°45'0 0.0
2017-Dec-13 11:52N 45°39' W 122°45'0 0.0
2017-Dec-13 11:28N 45°39' W 122°45'0 0.0
2017-Dec-13 10:58N 45°39' W 122°45'0 0.0
2017-Dec-13 10:16N 45°39' W 122°45'0 0.0
2017-Dec-13 09:58N 45°39' W 122°45'0 0.0
2017-Dec-13 09:28N 45°39' W 122°45'0 0.0
2017-Dec-13 08:55N 45°39' W 122°45'0 0.0
2017-Dec-13 08:28N 45°39' W 122°45'0 0.0
2017-Dec-13 07:34N 45°39' W 122°45'0 0.0
2017-Dec-13 07:28N 45°39' W 122°45'0 0.0
2017-Dec-13 06:46N 45°39' W 122°45'0 0.0
2017-Dec-13 06:28N 45°39' W 122°45'0 0.0
2017-Dec-13 05:55N 45°39' W 122°45'0 0.0
2017-Dec-13 05:25N 45°39' W 122°45'0 0.0
2017-Dec-13 04:58N 45°39' W 122°45'0 0.0
2017-Dec-13 04:28N 45°39' W 122°45'0 0.0
2017-Dec-13 03:49N 45°39' W 122°45'0 0.0
2017-Dec-13 03:28N 45°39' W 122°45'0 0.0
2017-Dec-13 02:58N 45°39' W 122°45'0 0.0
2017-Dec-13 02:28N 45°39' W 122°45'0 0.0
2017-Dec-13 01:28N 45°39' W 122°45'0 0.0
2017-Dec-13 00:58N 45°39' W 122°45'0 0.0
2017-Dec-13 00:28N 45°39' W 122°45'0 0.0
2017-Dec-12 23:58N 45°39' W 122°45'0 0.0
2017-Dec-12 23:22N 45°39' W 122°45'0 0.0
2017-Dec-12 22:55N 45°39' W 122°45'0 0.0
2017-Dec-12 22:28N 45°39' W 122°45'0 0.0
2017-Dec-12 21:58N 45°39' W 122°45'0 0.0
2017-Dec-12 21:28N 45°39' W 122°45'0 0.5
2017-Dec-12 20:59N 45°39' W 122°45'3 5.6
2017-Dec-12 20:30N 45°38' W 122°41'2 4.0
2017-Dec-12 20:00N 45°37' W 122°39'3 5.2
2017-Dec-12 19:30N 45°38' W 122°42'2 3.0
2017-Dec-12 18:44N 45°39' W 122°45'0 0.0
2017-Dec-12 18:30N 45°39' W 122°45'0 0.0
2017-Dec-12 17:57N 45°39' W 122°45'0 0.0
2017-Dec-12 17:29N 45°39' W 122°45'0 0.0
2017-Dec-12 17:00N 45°39' W 122°45'0 0.0
2017-Dec-12 16:29N 45°39' W 122°45'0 0.0
2017-Dec-12 15:56N 45°39' W 122°45'0 0.0
2017-Dec-12 15:29N 45°39' W 122°45'0 0.0
2017-Dec-12 14:38N 45°39' W 122°45'0 0.0
2017-Dec-12 14:29N 45°39' W 122°45'0 0.0
2017-Dec-12 13:59N 45°39' W 122°45'0 0.0
2017-Dec-12 13:30N 45°39' W 122°45'0 0.0
2017-Dec-12 12:59N 45°39' W 122°45'0 0.0
2017-Dec-12 12:29N 45°39' W 122°45'0 0.0
2017-Dec-12 11:59N 45°39' W 122°45'2 3.3
2017-Dec-12 11:30N 45°38' W 122°47'5 9.1
2017-Dec-12 11:00N 45°34' W 122°44'0 0.9
2017-Dec-12 10:29N 45°34' W 122°44'0 0.0
2017-Dec-12 09:59N 45°34' W 122°44'0 0.0
2017-Dec-12 09:26N 45°34' W 122°44'0 0.0
2017-Dec-12 08:53N 45°34' W 122°44'0 0.0
2017-Dec-12 08:29N 45°34' W 122°44'0 0.0
2017-Dec-12 07:56N 45°34' W 122°44'0 0.0
2017-Dec-12 07:17N 45°34' W 122°44'0 0.0
2017-Dec-12 06:56N 45°34' W 122°44'0 0.0
2017-Dec-12 06:26N 45°34' W 122°44'0 0.0
2017-Dec-12 05:56N 45°34' W 122°44'0 0.0
2017-Dec-12 04:56N 45°34' W 122°44'0 0.0
2017-Dec-12 04:26N 45°34' W 122°44'0 0.0
2017-Dec-12 03:56N 45°34' W 122°44'0 0.0
2017-Dec-12 03:26N 45°34' W 122°44'0 0.0
2017-Dec-12 02:23N 45°34' W 122°44'0 0.0
2017-Dec-12 01:44N 45°34' W 122°44'0 0.0
2017-Dec-12 01:17N 45°34' W 122°44'0 0.0
2017-Dec-12 00:56N 45°34' W 122°44'0 0.0
2017-Dec-12 00:29N 45°34' W 122°44'0 0.0
2017-Dec-11 23:59N 45°34' W 122°44'0 0.0
2017-Dec-11 23:20N 45°34' W 122°44'0 0.0
2017-Dec-11 22:59N 45°34' W 122°44'0 0.0
2017-Dec-11 22:26N 45°34' W 122°44'1 1.9
2017-Dec-11 22:00N 45°34' W 122°44'4 7.3
2017-Dec-11 21:30N 45°37' W 122°47'2 4.8
2017-Dec-11 21:01N 45°38' W 122°44'2 3.8
2017-Dec-11 20:28N 45°37' W 122°42'0 0.0
2017-Dec-11 19:59N 45°37' W 122°42'1 1.3
2017-Dec-11 19:30N 45°37' W 122°41'0 0.2
2017-Dec-11 19:00N 45°36' W 122°41'1 1.8
2017-Dec-11 18:30N 45°37' W 122°42'0 0.0
2017-Dec-11 18:00N 45°37' W 122°42'0 0.0
2017-Dec-11 17:30N 45°37' W 122°42'0 0.0
2017-Dec-11 16:57N 45°37' W 122°42'0 0.1
2017-Dec-11 16:19N 45°37' W 122°42'2 5.6
2017-Dec-11 16:00N 45°38' W 122°44'1 1.5
2017-Dec-11 15:26N 45°39' W 122°45'0 0.0
2017-Dec-11 14:59N 45°39' W 122°45'1 1.1
2017-Dec-11 14:30N 45°39' W 122°46'1 2.2
2017-Dec-11 14:00N 45°38' W 122°47'1 2.3
2017-Dec-11 13:30N 45°39' W 122°46'1 1.1
2017-Dec-11 13:00N 45°39' W 122°45'1 1.6
2017-Dec-11 12:31N 45°39' W 122°46'4 7.2
2017-Dec-11 12:00N 45°36' W 122°46'3 5.2
2017-Dec-11 11:30N 45°34' W 122°44'0 0.1
2017-Dec-11 10:55N 45°34' W 122°44'0 0.0
2017-Dec-11 10:28N 45°34' W 122°44'0 0.0
2017-Dec-11 09:52N 45°34' W 122°44'0 0.0
2017-Dec-11 09:25N 45°34' W 122°44'0 0.0
2017-Dec-11 08:58N 45°34' W 122°44'0 0.0
2017-Dec-11 08:10N 45°34' W 122°44'0 0.0
2017-Dec-11 07:55N 45°34' W 122°44'0 0.0
2017-Dec-11 07:29N 45°34' W 122°44'0 0.0
2017-Dec-11 06:59N 45°34' W 122°44'0 0.0
2017-Dec-11 06:29N 45°34' W 122°44'0 0.0
2017-Dec-11 05:56N 45°34' W 122°44'0 0.0
2017-Dec-11 05:26N 45°34' W 122°44'0 0.0
2017-Dec-11 04:56N 45°34' W 122°44'0 0.0
2017-Dec-11 04:28N 45°34' W 122°44'0 0.0
2017-Dec-11 03:58N 45°34' W 122°44'0 0.0
2017-Dec-11 03:25N 45°34' W 122°44'0 0.0
2017-Dec-11 02:58N 45°34' W 122°44'0 0.0
2017-Dec-11 02:28N 45°34' W 122°44'0 0.0
2017-Dec-11 01:58N 45°34' W 122°44'0 0.0
2017-Dec-11 01:28N 45°34' W 122°44'0 0.0
2017-Dec-11 00:46N 45°34' W 122°44'0 0.0
2017-Dec-11 00:28N 45°34' W 122°44'0 0.0
2017-Dec-10 23:58N 45°34' W 122°44'0 0.0
2017-Dec-10 23:28N 45°34' W 122°44'0 0.0
2017-Dec-10 22:55N 45°34' W 122°44'0 0.0
2017-Dec-10 22:28N 45°34' W 122°44'0 0.0
2017-Dec-10 21:58N 45°34' W 122°44'0 0.0
2017-Dec-10 21:28N 45°34' W 122°44'0 0.0
2017-Dec-10 20:58N 45°34' W 122°44'0 0.0
2017-Dec-10 20:28N 45°34' W 122°44'0 0.0
2017-Dec-10 19:58N 45°34' W 122°44'0 0.0
2017-Dec-10 19:16N 45°34' W 122°44'0 0.0
2017-Dec-10 18:58N 45°34' W 122°44'0 0.0
2017-Dec-10 18:25N 45°34' W 122°44'0 0.0
2017-Dec-10 17:55N 45°34' W 122°44'0 0.0
2017-Dec-10 17:28N 45°34' W 122°44'0 0.0
2017-Dec-10 16:58N 45°34' W 122°44'0 0.0
2017-Dec-10 16:28N 45°34' W 122°44'0 0.0
2017-Dec-10 15:58N 45°34' W 122°44'0 0.0
2017-Dec-10 15:28N 45°34' W 122°44'0 0.0
2017-Dec-10 14:52N 45°34' W 122°44'0 0.0
2017-Dec-10 14:28N 45°34' W 122°44'0 0.0
2017-Dec-10 13:58N 45°34' W 122°44'0 0.0
2017-Dec-10 13:19N 45°34' W 122°44'0 0.0
2017-Dec-10 12:52N 45°34' W 122°44'0 0.0
2017-Dec-10 12:22N 45°34' W 122°44'0 0.0
2017-Dec-10 11:58N 45°34' W 122°44'0 0.0
2017-Dec-10 11:22N 45°34' W 122°44'0 0.0
2017-Dec-10 10:58N 45°34' W 122°44'0 0.1
2017-Dec-10 10:28N 45°34' W 122°44'0 0.0
2017-Dec-10 09:58N 45°34' W 122°44'1 3.3
2017-Dec-10 09:30N 45°35' W 122°45'4 7.2
2017-Dec-10 09:01N 45°38' W 122°47'3 6.6
2017-Dec-10 08:31N 45°41' W 122°46'3 6.6
2017-Dec-10 08:01N 45°45' W 122°46'3 5.9
2017-Dec-10 07:31N 45°47' W 122°47'2 3.8
2017-Dec-10 06:56N 45°50' W 122°48'2 4.8
2017-Dec-10 06:31N 45°52' W 122°47'3 5.8
2017-Dec-10 06:00N 45°54' W 122°48'3 6.0
2017-Dec-10 05:31N 45°57' W 122°49'3 6.4
2017-Dec-10 05:00N 46°00' W 122°51'3 6.4
2017-Dec-10 04:31N 46°03' W 122°53'3 6.1
2017-Dec-10 04:00N 46°05' W 122°55'0 0.4
2017-Dec-10 03:18N 46°05' W 122°56'0 0.0
2017-Dec-10 03:00N 46°05' W 122°56'0 0.0
2017-Dec-10 02:30N 46°05' W 122°56'0 0.0
2017-Dec-10 02:00N 46°05' W 122°56'0 0.0
2017-Dec-10 01:27N 46°05' W 122°56'0 0.0
2017-Dec-10 01:00N 46°05' W 122°56'0 0.0
2017-Dec-10 00:30N 46°05' W 122°56'0 0.0
2017-Dec-09 23:54N 46°05' W 122°56'0 0.0
2017-Dec-09 23:27N 46°05' W 122°56'0 0.0
2017-Dec-09 23:00N 46°05' W 122°56'0 0.0
2017-Dec-09 22:30N 46°05' W 122°56'0 0.0
2017-Dec-09 21:57N 46°05' W 122°56'0 0.0
2017-Dec-09 21:21N 46°05' W 122°56'0 0.0
2017-Dec-09 21:00N 46°05' W 122°56'0 0.0
2017-Dec-09 20:24N 46°05' W 122°56'0 0.0
2017-Dec-09 19:57N 46°05' W 122°56'0 0.0
2017-Dec-09 19:30N 46°05' W 122°56'0 0.0
2017-Dec-09 18:55N 46°05' W 122°56'0 0.0
2017-Dec-09 18:30N 46°05' W 122°56'0 0.0
2017-Dec-09 17:27N 46°05' W 122°56'0 0.0
2017-Dec-09 17:00N 46°05' W 122°56'0 0.0
2017-Dec-09 16:30N 46°05' W 122°56'0 0.0
2017-Dec-09 15:42N 46°05' W 122°56'0 0.0
2017-Dec-09 15:27N 46°05' W 122°56'0 0.0
2017-Dec-09 14:12N 46°05' W 122°56'0 0.0
2017-Dec-09 13:36N 46°05' W 122°56'0 0.0
2017-Dec-09 13:21N 46°05' W 122°56'0 0.0
2017-Dec-09 13:00N 46°05' W 122°56'0 0.0
2017-Dec-09 12:30N 46°05' W 122°56'0 0.0
2017-Dec-09 12:00N 46°05' W 122°56'0 0.0
2017-Dec-09 11:24N 46°05' W 122°56'0 0.0
2017-Dec-09 10:57N 46°05' W 122°56'0 0.0
2017-Dec-09 10:27N 46°05' W 122°56'0 0.0
2017-Dec-09 10:00N 46°05' W 122°56'0 0.0
2017-Dec-09 09:30N 46°05' W 122°56'0 0.0
2017-Dec-09 09:00N 46°05' W 122°56'0 0.0
2017-Dec-09 08:30N 46°05' W 122°56'1 2.2
2017-Dec-09 08:01N 46°06' W 122°57'0 0.1
2017-Dec-09 07:30N 46°06' W 122°57'0 0.9
2017-Dec-09 07:01N 46°06' W 122°57'0 0.1
2017-Dec-09 06:09N 46°06' W 122°56'0 0.0
2017-Dec-09 06:01N 46°06' W 122°56'0 0.0
2017-Dec-09 05:31N 46°06' W 122°56'1 1.4
2017-Dec-09 05:01N 46°06' W 122°56'0 0.4
2017-Dec-09 04:30N 46°05' W 122°56'0 0.0
2017-Dec-09 04:01N 46°05' W 122°56'0 0.0
2017-Dec-09 03:30N 46°05' W 122°56'0 0.0
2017-Dec-09 03:00N 46°05' W 122°56'0 0.0
2017-Dec-09 02:30N 46°05' W 122°56'0 0.0
2017-Dec-09 02:00N 46°05' W 122°56'0 0.0
2017-Dec-09 01:31N 46°05' W 122°56'0 0.0
2017-Dec-09 01:00N 46°05' W 122°56'0 0.0
2017-Dec-09 00:31N 46°05' W 122°56'0 0.0
2017-Dec-09 00:00N 46°05' W 122°56'0 0.0
2017-Dec-08 23:30N 46°05' W 122°56'0 0.0
2017-Dec-08 23:00N 46°05' W 122°56'0 0.0
2017-Dec-08 22:31N 46°05' W 122°56'0 0.0
2017-Dec-08 22:01N 46°05' W 122°56'0 0.0
2017-Dec-08 21:30N 46°05' W 122°56'0 0.0
2017-Dec-08 21:00N 46°05' W 122°56'0 0.0
2017-Dec-08 20:31N 46°05' W 122°56'0 0.0
2017-Dec-08 20:01N 46°05' W 122°56'0 0.0
2017-Dec-08 19:30N 46°05' W 122°56'0 0.0
2017-Dec-08 19:01N 46°05' W 122°56'0 0.0
2017-Dec-08 18:31N 46°05' W 122°56'0 0.0
2017-Dec-08 18:01N 46°05' W 122°56'0 0.0
2017-Dec-08 17:31N 46°05' W 122°56'0 0.0
2017-Dec-08 17:00N 46°05' W 122°56'0 0.0
2017-Dec-08 16:30N 46°05' W 122°56'0 0.0
2017-Dec-08 16:01N 46°05' W 122°56'0 0.0
2017-Dec-08 15:31N 46°05' W 122°56'0 0.0
2017-Dec-08 15:01N 46°05' W 122°56'0 0.0
2017-Dec-08 14:30N 46°05' W 122°56'0 0.0
2017-Dec-08 14:01N 46°05' W 122°56'0 0.0
2017-Dec-08 13:30N 46°05' W 122°56'0 0.0
2017-Dec-08 13:01N 46°05' W 122°56'0 0.0
2017-Dec-08 12:30N 46°05' W 122°56'0 0.0
2017-Dec-08 12:01N 46°05' W 122°56'0 0.0
2017-Dec-08 11:30N 46°05' W 122°56'0 0.0
2017-Dec-08 11:01N 46°05' W 122°56'0 0.0
2017-Dec-08 10:31N 46°05' W 122°56'0 0.0
2017-Dec-08 10:01N 46°05' W 122°56'0 0.0
2017-Dec-08 09:31N 46°05' W 122°56'0 0.0
2017-Dec-08 08:46N 46°05' W 122°56'0 0.0
2017-Dec-08 08:28N 46°05' W 122°56'0 0.0
2017-Dec-08 08:01N 46°05' W 122°56'0 0.0
2017-Dec-08 07:30N 46°05' W 122°56'0 0.0
2017-Dec-08 07:00N 46°05' W 122°56'0 0.0
2017-Dec-08 06:31N 46°05' W 122°56'0 0.0
2017-Dec-08 06:01N 46°05' W 122°56'0 0.0
2017-Dec-08 05:31N 46°05' W 122°56'0 0.0
2017-Dec-08 05:00N 46°05' W 122°56'  
Track history (hours):
 
Tides and Currents Weather Stations Pressure Air Temp Water Temp Dewpoint Dewpoint Depression Visibility Wind Speed Wind Dir Waves Ship Positions

Umatilla

Owner: Shaver TRansportation Company, Portland, OR. More information available from US FCC via Universal Licensing System and Coast Guard Vessel Documentation Center.

Last reported at 2017-Dec-18 04:50 UTC. Time now 2017-Dec-18 05:22 UTC.
Position N 45°34' W 122°44'.

Length 20 m; draft 2.9 m.

Type: Tug. MMSI: 367513210.

Date/timePositionNaut miles runAvg speedWind from/ knotsBaromVisibWave heightAir tempDewpointWater temp
2017-Dec-18 04:50N 45°34' W 122°44'2 7.5
2017-Dec-18 04:31N 45°32' W 122°41'0 0.1
2017-Dec-18 03:58N 45°32' W 122°41'0 0.1
2017-Dec-18 03:25N 45°32' W 122°41'1 2.0
2017-Dec-18 03:00N 45°33' W 122°42'1 1.1
2017-Dec-18 02:30N 45°33' W 122°42'2 2.7
2017-Dec-18 01:56N 45°32' W 122°41'0 0.0
2017-Dec-18 01:27N 45°32' W 122°41'3 3.0
2017-Dec-18 00:33N 45°34' W 122°44'0 0.0
2017-Dec-18 00:27N 45°34' W 122°44'0 0.0
2017-Dec-18 00:00N 45°34' W 122°44'0 0.0
2017-Dec-17 23:27N 45°34' W 122°44'0 0.0
2017-Dec-17 23:00N 45°34' W 122°44'2 3.3
2017-Dec-17 22:30N 45°35' W 122°45'2 2.5
2017-Dec-17 21:54N 45°36' W 122°47'1 2.4
2017-Dec-17 21:29N 45°35' W 122°46'2 4.5
2017-Dec-17 21:00N 45°34' W 122°44'0 0.0
2017-Dec-17 20:30N 45°34' W 122°44'0 0.0
2017-Dec-17 20:00N 45°34' W 122°44'0 0.0
2017-Dec-17 19:30N 45°34' W 122°44'0 0.0
2017-Dec-17 19:00N 45°34' W 122°44'0 0.0
2017-Dec-17 18:30N 45°34' W 122°44'0 0.0
2017-Dec-17 18:00N 45°34' W 122°44'0 0.0
2017-Dec-17 17:24N 45°34' W 122°44'0 0.0
2017-Dec-17 17:00N 45°34' W 122°44'0 0.0
2017-Dec-17 16:30N 45°34' W 122°44'0 0.0
2017-Dec-17 16:00N 45°34' W 122°44'0 0.0
2017-Dec-17 15:30N 45°34' W 122°44'0 0.0
2017-Dec-17 15:00N 45°34' W 122°44'1 1.8
2017-Dec-17 14:30N 45°34' W 122°44'4 7.8
2017-Dec-17 14:00N 45°38' W 122°47'2 3.7
2017-Dec-17 13:30N 45°39' W 122°45'0 0.1
2017-Dec-17 13:00N 45°39' W 122°45'0 0.0
2017-Dec-17 12:24N 45°39' W 122°45'0 0.0
2017-Dec-17 12:00N 45°39' W 122°45'0 0.0
2017-Dec-17 11:30N 45°39' W 122°45'0 0.0
2017-Dec-17 10:54N 45°39' W 122°45'0 0.0
2017-Dec-17 10:30N 45°39' W 122°45'0 0.0
2017-Dec-17 09:57N 45°39' W 122°45'0 0.0
2017-Dec-17 09:30N 45°39' W 122°45'0 0.0
2017-Dec-17 09:00N 45°39' W 122°45'0 0.0
2017-Dec-17 08:27N 45°39' W 122°45'0 0.0
2017-Dec-17 08:00N 45°39' W 122°45'0 0.0
2017-Dec-17 07:30N 45°39' W 122°45'0 0.0
2017-Dec-17 07:00N 45°39' W 122°45'0 0.0
2017-Dec-17 06:27N 45°39' W 122°45'0 0.0
2017-Dec-17 06:00N 45°39' W 122°45'0 0.0
2017-Dec-17 05:27N 45°39' W 122°45'0 0.0
2017-Dec-17 05:00N 45°39' W 122°45'0 0.0
2017-Dec-17 04:30N 45°39' W 122°45'0 0.0
2017-Dec-17 03:51N 45°39' W 122°45'0 0.0
2017-Dec-17 03:30N 45°39' W 122°45'0 0.0
2017-Dec-17 03:00N 45°39' W 122°45'0 0.0
2017-Dec-17 02:27N 45°39' W 122°45'0 0.0
2017-Dec-17 02:00N 45°39' W 122°45'0 0.0
2017-Dec-17 01:12N 45°39' W 122°45'0 0.0
2017-Dec-17 00:57N 45°39' W 122°45'0 0.0
2017-Dec-17 00:24N 45°39' W 122°45'0 0.0
2017-Dec-17 00:00N 45°39' W 122°45'0 0.0
2017-Dec-16 23:27N 45°39' W 122°45'0 0.0
2017-Dec-16 22:57N 45°39' W 122°45'0 0.0
2017-Dec-16 22:27N 45°39' W 122°45'0 0.0
2017-Dec-16 21:57N 45°39' W 122°45'0 0.0
2017-Dec-16 21:30N 45°39' W 122°45'0 0.0
2017-Dec-16 21:00N 45°39' W 122°45'0 0.0
2017-Dec-16 20:30N 45°39' W 122°45'0 0.0
2017-Dec-16 19:57N 45°39' W 122°45'0 0.0
2017-Dec-16 19:30N 45°39' W 122°45'0 0.0
2017-Dec-16 18:57N 45°39' W 122°45'0 0.0
2017-Dec-16 18:27N 45°39' W 122°45'0 0.0
2017-Dec-16 17:54N 45°39' W 122°45'0 0.0
2017-Dec-16 17:24N 45°39' W 122°45'0 0.0
2017-Dec-16 17:00N 45°39' W 122°45'0 0.0
2017-Dec-16 16:24N 45°39' W 122°45'0 0.0
2017-Dec-16 16:00N 45°39' W 122°45'0 0.0
2017-Dec-16 15:30N 45°39' W 122°45'0 0.0
2017-Dec-16 15:00N 45°39' W 122°45'0 0.0
2017-Dec-16 14:30N 45°39' W 122°45'0 0.0
2017-Dec-16 14:00N 45°39' W 122°45'0 0.0
2017-Dec-16 13:30N 45°39' W 122°45'0 0.0
2017-Dec-16 12:57N 45°39' W 122°45'0 0.0
2017-Dec-16 12:30N 45°39' W 122°45'0 0.0
2017-Dec-16 11:57N 45°39' W 122°45'0 0.0
2017-Dec-16 11:27N 45°39' W 122°45'0 0.0
2017-Dec-16 10:57N 45°39' W 122°45'0 0.0
2017-Dec-16 10:30N 45°39' W 122°45'0 0.0
2017-Dec-16 10:00N 45°39' W 122°45'0 0.0
2017-Dec-16 09:21N 45°39' W 122°45'0 0.0
2017-Dec-16 08:57N 45°39' W 122°45'0 0.0
2017-Dec-16 08:27N 45°39' W 122°45'0 0.0
2017-Dec-16 08:00N 45°39' W 122°45'0 0.0
2017-Dec-16 07:27N 45°39' W 122°45'0 0.0
2017-Dec-16 07:00N 45°39' W 122°45'0 0.0
2017-Dec-16 06:30N 45°39' W 122°45'0 0.0
2017-Dec-16 05:54N 45°39' W 122°45'0 0.0
2017-Dec-16 05:24N 45°39' W 122°45'0 0.0
2017-Dec-16 04:54N 45°39' W 122°45'0 0.0
2017-Dec-16 04:30N 45°39' W 122°45'0 0.0
2017-Dec-16 03:57N 45°39' W 122°45'0 0.0
2017-Dec-16 03:30N 45°39' W 122°45'1 1.3
2017-Dec-16 03:00N 45°39' W 122°44'2 4.2
2017-Dec-16 02:31N 45°38' W 122°42'1 1.0
2017-Dec-16 02:00N 45°38' W 122°42'2 3.9
2017-Dec-16 01:30N 45°39' W 122°45'1 1.9
2017-Dec-16 01:00N 45°38' W 122°44'2 3.1
2017-Dec-16 00:31N 45°38' W 122°42'2 3.2
2017-Dec-16 00:00N 45°38' W 122°44'0 0.0
2017-Dec-15 23:31N 45°38' W 122°44'0 0.0
2017-Dec-15 22:57N 45°38' W 122°44'1 0.7
2017-Dec-15 21:20N 45°39' W 122°45'0 0.0
2017-Dec-15 21:00N 45°39' W 122°45'0 0.0
2017-Dec-15 20:16N 45°39' W 122°45'0 0.0
2017-Dec-15 20:00N 45°39' W 122°45'0 0.0
2017-Dec-15 19:21N 45°39' W 122°45'0 0.0
2017-Dec-15 19:00N 45°39' W 122°45'0 0.0
2017-Dec-15 18:31N 45°39' W 122°45'0 0.0
2017-Dec-15 18:01N 45°39' W 122°45'0 0.0
2017-Dec-15 17:30N 45°39' W 122°45'0 0.0
2017-Dec-15 17:01N 45°39' W 122°45'0 0.0
2017-Dec-15 16:30N 45°39' W 122°45'0 0.0
2017-Dec-15 16:00N 45°39' W 122°45'0 0.0
2017-Dec-15 15:30N 45°39' W 122°45'0 0.0
2017-Dec-15 15:00N 45°39' W 122°45'0 0.0
2017-Dec-15 14:30N 45°39' W 122°45'0 0.0
2017-Dec-15 13:54N 45°39' W 122°45'0 0.0
2017-Dec-15 13:30N 45°39' W 122°45'0 0.0
2017-Dec-15 12:23N 45°39' W 122°45'0 0.0
2017-Dec-15 12:00N 45°39' W 122°45'0 0.0
2017-Dec-15 11:31N 45°39' W 122°45'0 0.0
2017-Dec-15 11:00N 45°39' W 122°45'0 0.0
2017-Dec-15 10:30N 45°39' W 122°45'0 0.0
2017-Dec-15 09:52N 45°39' W 122°45'0 0.0
2017-Dec-15 09:20N 45°39' W 122°45'0 0.0
2017-Dec-15 09:00N 45°39' W 122°45'0 0.0
2017-Dec-15 08:30N 45°39' W 122°45'0 0.0
2017-Dec-15 08:00N 45°39' W 122°45'0 0.0
2017-Dec-15 07:30N 45°39' W 122°45'0 0.0
2017-Dec-15 07:01N 45°39' W 122°45'0 0.0
2017-Dec-15 06:28N 45°39' W 122°45'0 0.0
2017-Dec-15 06:00N 45°39' W 122°45'0 0.0
2017-Dec-15 05:08N 45°39' W 122°45'0 0.0
2017-Dec-15 05:01N 45°39' W 122°45'0 0.0
2017-Dec-15 04:30N 45°39' W 122°45'0 0.0
2017-Dec-15 04:00N 45°39' W 122°45'0 0.0
2017-Dec-15 02:31N 45°39' W 122°45'0 0.0
2017-Dec-15 01:01N 45°39' W 122°45'1 1.5
2017-Dec-15 00:30N 45°38' W 122°44'1 0.1
2017-Dec-14 18:28N 45°39' W 122°45'0 0.0
2017-Dec-14 17:58N 45°39' W 122°45'0 0.0
2017-Dec-14 17:28N 45°39' W 122°45'0 0.0
2017-Dec-14 16:58N 45°39' W 122°45'0 0.0
2017-Dec-14 16:28N 45°39' W 122°45'0 0.0
2017-Dec-14 15:58N 45°39' W 122°45'0 0.0
2017-Dec-14 14:58N 45°39' W 122°45'0 0.0
2017-Dec-14 14:16N 45°39' W 122°45'0 0.0
2017-Dec-14 13:55N 45°39' W 122°45'0 0.0
2017-Dec-14 13:22N 45°39' W 122°45'0 0.0
2017-Dec-14 12:58N 45°39' W 122°45'0 0.0
2017-Dec-14 12:19N 45°39' W 122°45'0 0.0
2017-Dec-14 11:34N 45°39' W 122°45'0 0.1
2017-Dec-14 11:28N 45°39' W 122°45'0 0.0
2017-Dec-14 10:58N 45°39' W 122°45'0 0.0
2017-Dec-14 10:22N 45°39' W 122°45'0 0.0
2017-Dec-14 09:58N 45°39' W 122°45'0 0.0
2017-Dec-14 09:22N 45°39' W 122°45'0 0.0
2017-Dec-14 08:55N 45°39' W 122°45'0 0.0
2017-Dec-14 08:28N 45°39' W 122°45'0 0.0
2017-Dec-14 07:58N 45°39' W 122°45'0 0.0
2017-Dec-14 07:28N 45°39' W 122°45'0 0.0
2017-Dec-14 06:58N 45°39' W 122°45'0 0.0
2017-Dec-14 06:16N 45°39' W 122°45'0 0.0
2017-Dec-14 05:58N 45°39' W 122°45'1 3.1
2017-Dec-14 05:30N 45°38' W 122°43'0 0.2
2017-Dec-14 05:00N 45°38' W 122°43'0 0.1
2017-Dec-14 04:31N 45°38' W 122°43'0 0.1
2017-Dec-14 04:00N 45°38' W 122°43'0 0.0
2017-Dec-14 03:30N 45°38' W 122°43'2 3.1
2017-Dec-14 03:00N 45°39' W 122°45'0 0.0
2017-Dec-14 02:30N 45°39' W 122°45'0 0.0
2017-Dec-14 01:51N 45°39' W 122°45'0 0.0
2017-Dec-14 01:27N 45°39' W 122°45'0 0.0
2017-Dec-14 00:58N 45°39' W 122°45'2 4.8
2017-Dec-14 00:30N 45°37' W 122°47'1 2.4
2017-Dec-14 00:00N 45°36' W 122°46'2 3.6
2017-Dec-13 23:30N 45°38' W 122°47'3 6.4
2017-Dec-13 23:01N 45°38' W 122°43'1 2.0
2017-Dec-13 22:30N 45°39' W 122°44'1 0.9
2017-Dec-13 21:58N 45°39' W 122°45'0 0.0
2017-Dec-13 20:37N 45°39' W 122°45'0 0.0
2017-Dec-13 20:28N 45°39' W 122°45'0 0.0
2017-Dec-13 19:55N 45°39' W 122°45'0 0.0
2017-Dec-13 19:22N 45°39' W 122°45'0 0.0
2017-Dec-13 18:58N 45°39' W 122°45'0 0.0
2017-Dec-13 18:25N 45°39' W 122°45'0 0.0
2017-Dec-13 17:58N 45°39' W 122°45'0 0.0
2017-Dec-13 17:28N 45°39' W 122°45'0 0.0
2017-Dec-13 16:56N 45°39' W 122°45'0 0.0
2017-Dec-13 16:25N 45°39' W 122°45'0 0.0
2017-Dec-13 15:58N 45°39' W 122°45'0 0.0
2017-Dec-13 15:28N 45°39' W 122°45'0 0.0
2017-Dec-13 14:58N 45°39' W 122°45'0 0.0
2017-Dec-13 14:28N 45°39' W 122°45'0 0.0
2017-Dec-13 13:55N 45°39' W 122°45'0 0.0
2017-Dec-13 13:28N 45°39' W 122°45'0 0.0
2017-Dec-13 12:58N 45°39' W 122°45'0 0.0
2017-Dec-13 12:25N 45°39' W 122°45'0 0.0
2017-Dec-13 11:52N 45°39' W 122°45'0 0.0
2017-Dec-13 11:28N 45°39' W 122°45'0 0.0
2017-Dec-13 10:58N 45°39' W 122°45'0 0.0
2017-Dec-13 10:16N 45°39' W 122°45'0 0.0
2017-Dec-13 09:58N 45°39' W 122°45'0 0.0
2017-Dec-13 09:28N 45°39' W 122°45'0 0.0
2017-Dec-13 08:55N 45°39' W 122°45'0 0.0
2017-Dec-13 08:28N 45°39' W 122°45'0 0.0
2017-Dec-13 07:34N 45°39' W 122°45'0 0.0
2017-Dec-13 07:28N 45°39' W 122°45'0 0.0
2017-Dec-13 06:46N 45°39' W 122°45'0 0.0
2017-Dec-13 06:28N 45°39' W 122°45'0 0.0
2017-Dec-13 05:55N 45°39' W 122°45'0 0.0
2017-Dec-13 05:25N 45°39' W 122°45'0 0.0
2017-Dec-13 04:58N 45°39' W 122°45'0 0.0
2017-Dec-13 04:28N 45°39' W 122°45'0 0.0
2017-Dec-13 03:49N 45°39' W 122°45'0 0.0
2017-Dec-13 03:28N 45°39' W 122°45'0 0.0
2017-Dec-13 02:58N 45°39' W 122°45'0 0.0
2017-Dec-13 02:28N 45°39' W 122°45'0 0.0
2017-Dec-13 01:28N 45°39' W 122°45'0 0.0
2017-Dec-13 00:58N 45°39' W 122°45'0 0.0
2017-Dec-13 00:28N 45°39' W 122°45'0 0.0
2017-Dec-12 23:58N 45°39' W 122°45'0 0.0
2017-Dec-12 23:22N 45°39' W 122°45'0 0.0
2017-Dec-12 22:55N 45°39' W 122°45'0 0.0
2017-Dec-12 22:28N 45°39' W 122°45'0 0.0
2017-Dec-12 21:58N 45°39' W 122°45'0 0.0
2017-Dec-12 21:28N 45°39' W 122°45'0 0.5
2017-Dec-12 20:59N 45°39' W 122°45'3 5.6
2017-Dec-12 20:30N 45°38' W 122°41'2 4.0
2017-Dec-12 20:00N 45°37' W 122°39'3 5.2
2017-Dec-12 19:30N 45°38' W 122°42'2 3.0
2017-Dec-12 18:44N 45°39' W 122°45'0 0.0
2017-Dec-12 18:30N 45°39' W 122°45'0 0.0
2017-Dec-12 17:57N 45°39' W 122°45'0 0.0
2017-Dec-12 17:29N 45°39' W 122°45'0 0.0
2017-Dec-12 17:00N 45°39' W 122°45'0 0.0
2017-Dec-12 16:29N 45°39' W 122°45'0 0.0
2017-Dec-12 15:56N 45°39' W 122°45'0 0.0
2017-Dec-12 15:29N 45°39' W 122°45'0 0.0
2017-Dec-12 14:38N 45°39' W 122°45'0 0.0
2017-Dec-12 14:29N 45°39' W 122°45'0 0.0
2017-Dec-12 13:59N 45°39' W 122°45'0 0.0
2017-Dec-12 13:30N 45°39' W 122°45'0 0.0
2017-Dec-12 12:59N 45°39' W 122°45'0 0.0
2017-Dec-12 12:29N 45°39' W 122°45'0 0.0
2017-Dec-12 11:59N 45°39' W 122°45'2 3.3
2017-Dec-12 11:30N 45°38' W 122°47'5 9.1
2017-Dec-12 11:00N 45°34' W 122°44'0 0.9
2017-Dec-12 10:29N 45°34' W 122°44'0 0.0
2017-Dec-12 09:59N 45°34' W 122°44'0 0.0
2017-Dec-12 09:26N 45°34' W 122°44'0 0.0
2017-Dec-12 08:53N 45°34' W 122°44'0 0.0
2017-Dec-12 08:29N 45°34' W 122°44'0 0.0
2017-Dec-12 07:56N 45°34' W 122°44'0 0.0
2017-Dec-12 07:17N 45°34' W 122°44'0 0.0
2017-Dec-12 06:56N 45°34' W 122°44'0 0.0
2017-Dec-12 06:26N 45°34' W 122°44'0 0.0
2017-Dec-12 05:56N 45°34' W 122°44'0 0.0
2017-Dec-12 04:56N 45°34' W 122°44'0 0.0
2017-Dec-12 04:26N 45°34' W 122°44'0 0.0
2017-Dec-12 03:56N 45°34' W 122°44'0 0.0
2017-Dec-12 03:26N 45°34' W 122°44'0 0.0
2017-Dec-12 02:23N 45°34' W 122°44'0 0.0
2017-Dec-12 01:44N 45°34' W 122°44'0 0.0
2017-Dec-12 01:17N 45°34' W 122°44'0 0.0
2017-Dec-12 00:56N 45°34' W 122°44'0 0.0
2017-Dec-12 00:29N 45°34' W 122°44'0 0.0
2017-Dec-11 23:59N 45°34' W 122°44'0 0.0
2017-Dec-11 23:20N 45°34' W 122°44'0 0.0
2017-Dec-11 22:59N 45°34' W 122°44'0 0.0
2017-Dec-11 22:26N 45°34' W 122°44'1 1.9
2017-Dec-11 22:00N 45°34' W 122°44'4 7.3
2017-Dec-11 21:30N 45°37' W 122°47'2 4.8
2017-Dec-11 21:01N 45°38' W 122°44'2 3.8
2017-Dec-11 20:28N 45°37' W 122°42'0 0.0
2017-Dec-11 19:59N 45°37' W 122°42'1 1.3
2017-Dec-11 19:30N 45°37' W 122°41'0 0.2
2017-Dec-11 19:00N 45°36' W 122°41'1 1.8
2017-Dec-11 18:30N 45°37' W 122°42'0 0.0
2017-Dec-11 18:00N 45°37' W 122°42'0 0.0
2017-Dec-11 17:30N 45°37' W 122°42'0 0.0
2017-Dec-11 16:57N 45°37' W 122°42'0 0.1
2017-Dec-11 16:19N 45°37' W 122°42'2 5.6
2017-Dec-11 16:00N 45°38' W 122°44'1 1.5
2017-Dec-11 15:26N 45°39' W 122°45'0 0.0
2017-Dec-11 14:59N 45°39' W 122°45'1 1.1
2017-Dec-11 14:30N 45°39' W 122°46'1 2.2
2017-Dec-11 14:00N 45°38' W 122°47'1 2.3
2017-Dec-11 13:30N 45°39' W 122°46'1 1.1
2017-Dec-11 13:00N 45°39' W 122°45'1 1.6
2017-Dec-11 12:31N 45°39' W 122°46'4 7.2
2017-Dec-11 12:00N 45°36' W 122°46'3 5.2
2017-Dec-11 11:30N 45°34' W 122°44'0 0.1
2017-Dec-11 10:55N 45°34' W 122°44'0 0.0
2017-Dec-11 10:28N 45°34' W 122°44'0 0.0
2017-Dec-11 09:52N 45°34' W 122°44'0 0.0
2017-Dec-11 09:25N 45°34' W 122°44'0 0.0
2017-Dec-11 08:58N 45°34' W 122°44'0 0.0
2017-Dec-11 08:10N 45°34' W 122°44'0 0.0
2017-Dec-11 07:55N 45°34' W 122°44'0 0.0
2017-Dec-11 07:29N 45°34' W 122°44'0 0.0
2017-Dec-11 06:59N 45°34' W 122°44'0 0.0
2017-Dec-11 06:29N 45°34' W 122°44'0 0.0
2017-Dec-11 05:56N 45°34' W 122°44'0 0.0
2017-Dec-11 05:26N 45°34' W 122°44'0 0.0
2017-Dec-11 04:56N 45°34' W 122°44'0 0.0
2017-Dec-11 04:28N 45°34' W 122°44'0 0.0
2017-Dec-11 03:58N 45°34' W 122°44'0 0.0
2017-Dec-11 03:25N 45°34' W 122°44'0 0.0
2017-Dec-11 02:58N 45°34' W 122°44'0 0.0
2017-Dec-11 02:28N 45°34' W 122°44'0 0.0
2017-Dec-11 01:58N 45°34' W 122°44'0 0.0
2017-Dec-11 01:28N 45°34' W 122°44'0 0.0
2017-Dec-11 00:46N 45°34' W 122°44'0 0.0
2017-Dec-11 00:28N 45°34' W 122°44'0 0.0
2017-Dec-10 23:58N 45°34' W 122°44'0 0.0
2017-Dec-10 23:28N 45°34' W 122°44'0 0.0
2017-Dec-10 22:55N 45°34' W 122°44'0 0.0
2017-Dec-10 22:28N 45°34' W 122°44'0 0.0
2017-Dec-10 21:58N 45°34' W 122°44'0 0.0
2017-Dec-10 21:28N 45°34' W 122°44'0 0.0
2017-Dec-10 20:58N 45°34' W 122°44'0 0.0
2017-Dec-10 20:28N 45°34' W 122°44'0 0.0
2017-Dec-10 19:58N 45°34' W 122°44'0 0.0
2017-Dec-10 19:16N 45°34' W 122°44'0 0.0
2017-Dec-10 18:58N 45°34' W 122°44'0 0.0
2017-Dec-10 18:25N 45°34' W 122°44'0 0.0
2017-Dec-10 17:55N 45°34' W 122°44'0 0.0
2017-Dec-10 17:28N 45°34' W 122°44'0 0.0
2017-Dec-10 16:58N 45°34' W 122°44'0 0.0
2017-Dec-10 16:28N 45°34' W 122°44'0 0.0
2017-Dec-10 15:58N 45°34' W 122°44'0 0.0
2017-Dec-10 15:28N 45°34' W 122°44'0 0.0
2017-Dec-10 14:52N 45°34' W 122°44'0 0.0
2017-Dec-10 14:28N 45°34' W 122°44'0 0.0
2017-Dec-10 13:58N 45°34' W 122°44'0 0.0
2017-Dec-10 13:19N 45°34' W 122°44'0 0.0
2017-Dec-10 12:52N 45°34' W 122°44'0 0.0
2017-Dec-10 12:22N 45°34' W 122°44'0 0.0
2017-Dec-10 11:58N 45°34' W 122°44'0 0.0
2017-Dec-10 11:22N 45°34' W 122°44'0 0.0
2017-Dec-10 10:58N 45°34' W 122°44'0 0.1
2017-Dec-10 10:28N 45°34' W 122°44'0 0.0
2017-Dec-10 09:58N 45°34' W 122°44'1 3.3
2017-Dec-10 09:30N 45°35' W 122°45'4 7.2
2017-Dec-10 09:01N 45°38' W 122°47'3 6.6
2017-Dec-10 08:31N 45°41' W 122°46'3 6.6
2017-Dec-10 08:01N 45°45' W 122°46'3 5.9
2017-Dec-10 07:31N 45°47' W 122°47'2 3.8
2017-Dec-10 06:56N 45°50' W 122°48'2 4.8
2017-Dec-10 06:31N 45°52' W 122°47'3 5.8
2017-Dec-10 06:00N 45°54' W 122°48'3 6.0
2017-Dec-10 05:31N 45°57' W 122°49'3 6.4
2017-Dec-10 05:00N 46°00' W 122°51'3 6.4
2017-Dec-10 04:31N 46°03' W 122°53'3 6.1
2017-Dec-10 04:00N 46°05' W 122°55'0 0.4
2017-Dec-10 03:18N 46°05' W 122°56'0 0.0
2017-Dec-10 03:00N 46°05' W 122°56'0 0.0
2017-Dec-10 02:30N 46°05' W 122°56'0 0.0
2017-Dec-10 02:00N 46°05' W 122°56'0 0.0
2017-Dec-10 01:27N 46°05' W 122°56'0 0.0
2017-Dec-10 01:00N 46°05' W 122°56'0 0.0
2017-Dec-10 00:30N 46°05' W 122°56'0 0.0
2017-Dec-09 23:54N 46°05' W 122°56'0 0.0
2017-Dec-09 23:27N 46°05' W 122°56'0 0.0
2017-Dec-09 23:00N 46°05' W 122°56'0 0.0
2017-Dec-09 22:30N 46°05' W 122°56'0 0.0
2017-Dec-09 21:57N 46°05' W 122°56'0 0.0
2017-Dec-09 21:21N 46°05' W 122°56'0 0.0
2017-Dec-09 21:00N 46°05' W 122°56'0 0.0
2017-Dec-09 20:24N 46°05' W 122°56'0 0.0
2017-Dec-09 19:57N 46°05' W 122°56'0 0.0
2017-Dec-09 19:30N 46°05' W 122°56'0 0.0
2017-Dec-09 18:55N 46°05' W 122°56'0 0.0
2017-Dec-09 18:30N 46°05' W 122°56'0 0.0
2017-Dec-09 17:27N 46°05' W 122°56'0 0.0
2017-Dec-09 17:00N 46°05' W 122°56'0 0.0
2017-Dec-09 16:30N 46°05' W 122°56'0 0.0
2017-Dec-09 15:42N 46°05' W 122°56'0 0.0
2017-Dec-09 15:27N 46°05' W 122°56'0 0.0
2017-Dec-09 14:12N 46°05' W 122°56'0 0.0
2017-Dec-09 13:36N 46°05' W 122°56'0 0.0
2017-Dec-09 13:21N 46°05' W 122°56'0 0.0
2017-Dec-09 13:00N 46°05' W 122°56'0 0.0
2017-Dec-09 12:30N 46°05' W 122°56'0 0.0
2017-Dec-09 12:00N 46°05' W 122°56'0 0.0
2017-Dec-09 11:24N 46°05' W 122°56'0 0.0
2017-Dec-09 10:57N 46°05' W 122°56'0 0.0
2017-Dec-09 10:27N 46°05' W 122°56'0 0.0
2017-Dec-09 10:00N 46°05' W 122°56'0 0.0
2017-Dec-09 09:30N 46°05' W 122°56'0 0.0
2017-Dec-09 09:00N 46°05' W 122°56'0 0.0
2017-Dec-09 08:30N 46°05' W 122°56'1 2.2
2017-Dec-09 08:01N 46°06' W 122°57'0 0.1
2017-Dec-09 07:30N 46°06' W 122°57'0 0.9
2017-Dec-09 07:01N 46°06' W 122°57'0 0.1
2017-Dec-09 06:09N 46°06' W 122°56'0 0.0
2017-Dec-09 06:01N 46°06' W 122°56'0 0.0
2017-Dec-09 05:31N 46°06' W 122°56'1 1.4
2017-Dec-09 05:01N 46°06' W 122°56'0 0.4
2017-Dec-09 04:30N 46°05' W 122°56'0 0.0
2017-Dec-09 04:01N 46°05' W 122°56'0 0.0
2017-Dec-09 03:30N 46°05' W 122°56'0 0.0
2017-Dec-09 03:00N 46°05' W 122°56'0 0.0
2017-Dec-09 02:30N 46°05' W 122°56'0 0.0
2017-Dec-09 02:00N 46°05' W 122°56'0 0.0
2017-Dec-09 01:31N 46°05' W 122°56'0 0.0
2017-Dec-09 01:00N 46°05' W 122°56'0 0.0
2017-Dec-09 00:31N 46°05' W 122°56'0 0.0
2017-Dec-09 00:00N 46°05' W 122°56'0 0.0
2017-Dec-08 23:30N 46°05' W 122°56'0 0.0
2017-Dec-08 23:00N 46°05' W 122°56'0 0.0
2017-Dec-08 22:31N 46°05' W 122°56'0 0.0
2017-Dec-08 22:01N 46°05' W 122°56'0 0.0
2017-Dec-08 21:30N 46°05' W 122°56'0 0.0
2017-Dec-08 21:00N 46°05' W 122°56'0 0.0
2017-Dec-08 20:31N 46°05' W 122°56'0 0.0
2017-Dec-08 20:01N 46°05' W 122°56'0 0.0
2017-Dec-08 19:30N 46°05' W 122°56'0 0.0
2017-Dec-08 19:01N 46°05' W 122°56'0 0.0
2017-Dec-08 18:31N 46°05' W 122°56'0 0.0
2017-Dec-08 18:01N 46°05' W 122°56'0 0.0
2017-Dec-08 17:31N 46°05' W 122°56'0 0.0
2017-Dec-08 17:00N 46°05' W 122°56'0 0.0
2017-Dec-08 16:30N 46°05' W 122°56'0 0.0
2017-Dec-08 16:01N 46°05' W 122°56'0 0.0
2017-Dec-08 15:31N 46°05' W 122°56'0 0.0
2017-Dec-08 15:01N 46°05' W 122°56'0 0.0
2017-Dec-08 14:30N 46°05' W 122°56'0 0.0
2017-Dec-08 14:01N 46°05' W 122°56'0 0.0
2017-Dec-08 13:30N 46°05' W 122°56'0 0.0
2017-Dec-08 13:01N 46°05' W 122°56'0 0.0
2017-Dec-08 12:30N 46°05' W 122°56'0 0.0
2017-Dec-08 12:01N 46°05' W 122°56'0 0.0
2017-Dec-08 11:30N 46°05' W 122°56'0 0.0
2017-Dec-08 11:01N 46°05' W 122°56'0 0.0
2017-Dec-08 10:31N 46°05' W 122°56'0 0.0
2017-Dec-08 10:01N 46°05' W 122°56'0 0.0
2017-Dec-08 09:31N 46°05' W 122°56'0 0.0
2017-Dec-08 08:46N 46°05' W 122°56'0 0.0
2017-Dec-08 08:28N 46°05' W 122°56'0 0.0
2017-Dec-08 08:01N 46°05' W 122°56'0 0.0
2017-Dec-08 07:30N 46°05' W 122°56'0 0.0
2017-Dec-08 07:00N 46°05' W 122°56'0 0.0
2017-Dec-08 06:31N 46°05' W 122°56'0 0.0
2017-Dec-08 06:01N 46°05' W 122°56'0 0.0
2017-Dec-08 05:31N 46°05' W 122°56'0 0.0
2017-Dec-08 05:00N 46°05' W 122°56'  

Dump ship's entire track history